Alledonia, Ohio
Current Conditions -  °F | °C
As of 8:33 PM on Friday 31 Oct 2014 (Local Time) from KHLG Reporting Station
Light Rain Light Rain  
Wind Chill: 42°   Ceiling: 1100
Heat Index: 42°   Visibility: 4mi
Dew Point: 40°   Wind: 0mph
Humidity: 92%   Direction: NA
Pressure: 29.88"   Gusts: NA
Location:  39.9°N, 80.97°W
Report Text: KHLG 010033Z 00000KT 4SM -RA BR FEW005 BKN011 OVC019 06/04 A2988 RMK AO2 P0003 T00560044
Loading
Personal Weather Stations






























Interactive Weather Map
Tropical Storm Tracking
New forecast layout! Learn more

10-Day Weather Forecast

Advertisements
Track Severe Weather on mobile